createdAt,value
2023-05-20T00:01:58.739Z,6.60
2023-05-20T00:12:01.644Z,6.38
2023-05-20T00:22:06.968Z,5.88
2023-05-20T00:32:10.690Z,6.22
2023-05-20T00:42:20.443Z,5.93
2023-05-20T00:52:25.148Z,6.43
2023-05-20T01:02:31.424Z,5.03
2023-05-20T01:12:39.377Z,4.82
2023-05-20T01:22:54.249Z,4.90
2023-05-20T01:33:02.856Z,4.78
2023-05-20T01:43:06.412Z,4.83
2023-05-20T01:53:11.134Z,4.60
2023-05-20T02:03:18.596Z,5.07
2023-05-20T02:13:20.869Z,4.60
2023-05-20T02:23:23.931Z,4.63
2023-05-20T02:33:29.409Z,4.03
2023-05-20T02:43:33.123Z,4.35
2023-05-20T02:53:37.507Z,4.60
2023-05-20T03:03:41.077Z,4.40
2023-05-20T03:13:43.441Z,3.95
2023-05-20T03:23:46.985Z,4.28
2023-05-20T03:33:52.017Z,4.47
2023-05-20T03:43:54.437Z,4.07
2023-05-20T03:53:56.698Z,4.50
2023-05-20T04:04:01.426Z,3.80
2023-05-20T04:14:05.949Z,4.10
2023-05-20T04:24:09.428Z,3.78
2023-05-20T04:34:15.187Z,3.92
2023-05-20T04:44:18.107Z,3.90
2023-05-20T04:54:20.575Z,4.30
2023-05-20T05:04:25.399Z,3.55
2023-05-20T05:14:27.660Z,3.53
2023-05-20T05:24:31.147Z,3.85
2023-05-20T05:34:36.145Z,3.70
2023-05-20T05:44:43.591Z,2.65
2023-05-20T05:54:48.336Z,3.03
2023-05-20T06:04:53.108Z,2.90
2023-05-20T06:14:57.569Z,3.80
2023-05-20T06:25:02.744Z,3.70
2023-05-20T06:35:07.215Z,4.00
2023-05-20T06:45:12.068Z,3.63
2023-05-20T06:55:21.228Z,3.50
2023-05-20T07:05:29.299Z,3.58
2023-05-20T07:15:36.362Z,3.55
2023-05-20T07:25:43.424Z,3.70
2023-05-20T07:35:48.036Z,3.22
2023-05-20T07:45:53.910Z,3.10
2023-05-20T07:55:59.195Z,3.33
2023-05-20T08:06:04.106Z,3.38
2023-05-20T08:16:10.502Z,3.28
2023-05-20T08:26:14.057Z,3.50
2023-05-20T08:36:19.843Z,3.53
2023-05-20T08:46:27.585Z,2.92
2023-05-20T08:56:34.823Z,2.85
2023-05-20T09:06:49.462Z,3.47
2023-05-20T09:16:53.883Z,4.00
2023-05-20T09:26:56.666Z,3.45
2023-05-20T09:36:59.764Z,4.15
2023-05-20T09:47:02.636Z,4.63
2023-05-20T09:57:10.006Z,4.10
2023-05-20T10:07:41.822Z,4.70
2023-05-20T10:18:13.260Z,4.07
2023-05-20T10:28:15.608Z,4.88
2023-05-20T10:38:21.587Z,4.60
2023-05-20T10:48:24.844Z,5.80
2023-05-20T10:58:29.914Z,4.68
2023-05-20T11:08:33.162Z,4.82
2023-05-20T11:18:37.621Z,3.83
2023-05-20T11:28:40.336Z,4.40
2023-05-20T11:38:47.228Z,4.07
2023-05-20T11:48:56.851Z,4.68
2023-05-20T11:59:01.822Z,5.10
2023-05-20T12:09:14.399Z,5.00
2023-05-20T12:19:22.179Z,4.10
2023-05-20T12:29:27.843Z,5.00
2023-05-20T12:39:31.207Z,3.75
2023-05-20T12:49:35.926Z,4.90
2023-05-20T12:59:42.788Z,4.43
2023-05-20T13:09:47.245Z,5.07
2023-05-20T13:19:52.180Z,5.00
2023-05-20T13:29:58.960Z,4.32
2023-05-20T13:40:03.429Z,4.30
2023-05-20T13:50:08.467Z,4.88
2023-05-20T14:00:13.853Z,3.80
2023-05-20T14:10:16.070Z,4.03
2023-05-20T14:20:18.622Z,4.20
2023-05-20T14:30:23.826Z,5.07
2023-05-20T14:40:31.345Z,4.40
2023-05-20T14:50:36.396Z,4.18
2023-05-20T15:00:43.165Z,5.13
2023-05-20T15:10:47.975Z,4.10
2023-05-20T15:20:50.262Z,5.30
2023-05-20T15:30:57.140Z,4.90
2023-05-20T15:41:02.514Z,4.20
2023-05-20T15:51:09.858Z,4.95
2023-05-20T16:01:14.598Z,4.93
2023-05-20T16:11:16.821Z,5.45
2023-05-20T16:21:25.323Z,4.93
2023-05-20T16:31:30.776Z,4.68
2023-05-20T16:41:35.170Z,3.67
2023-05-20T16:51:37.432Z,4.10
2023-05-20T17:01:40.308Z,3.83
2023-05-20T17:11:46.131Z,4.68
2023-05-20T17:21:48.360Z,3.50
2023-05-20T17:31:52.981Z,3.63
2023-05-20T17:41:55.779Z,4.78
2023-05-20T17:51:58.099Z,4.15
2023-05-20T18:02:06.542Z,4.95
2023-05-20T18:12:09.635Z,4.72
2023-05-20T18:22:14.617Z,4.00
2023-05-20T18:32:19.299Z,3.78
2023-05-20T18:42:24.060Z,4.63
2023-05-20T18:52:26.270Z,4.57
2023-05-20T19:02:35.751Z,4.30
2023-05-20T19:12:43.824Z,4.28
2023-05-20T19:22:48.253Z,5.50
2023-05-20T19:33:06.155Z,5.00
2023-05-20T19:43:11.499Z,5.45
2023-05-20T19:53:16.328Z,4.68
2023-05-20T20:03:20.896Z,4.20
2023-05-20T20:13:26.084Z,4.78
2023-05-20T20:23:28.405Z,4.93
2023-05-20T20:33:35.542Z,6.55
2023-05-20T20:43:40.281Z,5.20
2023-05-20T20:53:43.332Z,4.45
2023-05-20T21:03:48.777Z,5.75
2023-05-20T21:13:53.449Z,5.85
2023-05-20T21:23:56.852Z,5.22
2023-05-20T21:33:59.234Z,4.85
2023-05-20T21:44:04.055Z,5.20
2023-05-20T21:54:06.285Z,4.57
2023-05-20T22:04:08.548Z,4.95
2023-05-20T22:14:20.150Z,5.15
2023-05-20T22:24:22.636Z,4.65
2023-05-20T22:34:24.872Z,4.25
2023-05-20T22:44:29.542Z,3.75
2023-05-20T22:54:36.496Z,3.58
2023-05-20T23:04:39.174Z,3.25
2023-05-20T23:14:41.909Z,3.80
2023-05-20T23:24:44.036Z,3.92
2023-05-20T23:34:53.069Z,3.38
2023-05-20T23:44:58.005Z,3.45
2023-05-20T23:55:02.512Z,4.10
